Time;durP1;ratioP1;P1;durP2;ratioP2;P2;SDS_P1;SDS_P2;PMS_P1;PMS_P2;Temp;Humidity;BMP_temperature;BMP_pressure;BME280_temperature;BME280_humidity;BME280_pressure;Samples;Min_cycle;Max_cycle;Signal;HPM_P1;HPM_P2
2023/05/04 00:01:39;;;;;;;7.28;3.80;;;;;;;5.34;74.10;99925.28;7341990;19;20441;-71
2023/05/04 00:04:04;;;;;;;6.07;3.50;;;;;;;5.32;74.12;99924.50;7342952;19;20011;-74
2023/05/04 00:06:29;;;;;;;11.80;4.75;;;;;;;5.27;74.19;99920.34;7342198;19;20044;-79
2023/05/04 00:08:53;;;;;;;6.47;4.07;;;;;;;5.27;74.12;99928.28;7339023;19;20143;-73
2023/05/04 00:11:18;;;;;;;9.55;3.97;;;;;;;5.25;74.16;99931.00;7343399;19;20011;-72
2023/05/04 00:13:43;;;;;;;6.63;4.13;;;;;;;5.22;74.02;99925.84;7345903;19;20476;-75
2023/05/04 00:16:08;;;;;;;9.18;4.05;;;;;;;5.21;73.83;99933.84;7342988;19;20044;-78
2023/05/04 00:18:32;;;;;;;5.85;4.10;;;;;;;5.17;73.98;99935.78;7353445;19;20010;-75
2023/05/04 00:20:57;;;;;;;8.38;4.45;;;;;;;5.13;74.09;99928.91;7349933;19;20025;-73
2023/05/04 00:23:22;;;;;;;7.65;3.70;;;;;;;5.12;73.97;99940.41;7354039;19;20022;-73
2023/05/04 00:25:46;;;;;;;8.50;3.85;;;;;;;5.10;73.44;99939.59;7346556;19;20094;-73
2023/05/04 00:28:11;;;;;;;8.55;3.83;;;;;;;5.03;72.49;99946.09;7351293;19;20082;-77
2023/05/04 00:30:36;;;;;;;6.32;4.18;;;;;;;5.05;72.33;99949.53;7345177;19;20021;-77
2023/05/04 00:33:01;;;;;;;4.10;3.38;;;;;;;5.04;72.21;99942.53;7351437;19;20034;-75
2023/05/04 00:35:26;;;;;;;10.73;3.83;;;;;;;5.03;72.13;99946.09;7349182;19;20021;-74
2023/05/04 00:37:51;;;;;;;7.18;3.60;;;;;;;5.02;72.05;99933.81;7351020;19;20323;-75
2023/05/04 00:40:16;;;;;;;8.85;3.90;;;;;;;5.01;72.07;99937.38;7349447;19;20011;-68
2023/05/04 00:42:40;;;;;;;8.45;3.97;;;;;;;5.00;72.23;99940.94;7348523;19;20051;-75
2023/05/04 00:45:05;;;;;;;6.00;3.40;;;;;;;4.99;72.30;99936.56;7349288;19;20006;-78
2023/05/04 00:47:31;;;;;;;5.18;3.33;;;;;;;4.95;72.28;99935.88;7348816;19;20018;-76
2023/05/04 00:49:55;;;;;;;6.60;3.60;;;;;;;4.92;72.33;99945.72;7348667;19;20037;-77
2023/05/04 00:52:21;;;;;;;7.40;4.25;;;;;;;4.93;72.49;99945.63;7351378;19;20081;-76
2023/05/04 00:54:46;;;;;;;7.68;4.05;;;;;;;4.90;72.71;99952.84;7349510;19;20018;-79
2023/05/04 00:57:11;;;;;;;6.85;3.40;;;;;;;4.88;72.91;99946.75;7349916;19;20021;-76
2023/05/04 00:59:36;;;;;;;6.88;3.50;;;;;;;4.85;72.76;99946.91;7351151;19;20011;-70
2023/05/04 01:02:01;;;;;;;9.70;3.75;;;;;;;4.84;72.39;99947.84;7340969;19;20066;-68
2023/05/04 01:04:26;;;;;;;4.88;3.75;;;;;;;4.79;72.29;99952.44;7342483;19;20451;-70
2023/05/04 01:07:04;;;;;;;3.97;3.08;;;;;;;4.80;72.94;99952.38;7343782;19;20037;-68
2023/05/04 01:09:41;;;;;;;7.18;3.90;;;;;;;4.80;72.76;99955.03;7341381;19;20352;-66
2023/05/04 01:12:14;;;;;;;5.55;3.45;;;;;;;4.76;72.90;99963.97;7342477;19;20025;-68
2023/05/04 01:14:39;;;;;;;9.05;4.10;;;;;;;4.73;72.55;99965.00;7342277;19;20035;-70
2023/05/04 01:17:06;;;;;;;7.60;3.40;;;;;;;4.73;72.45;99967.63;7344225;19;20046;-68
2023/05/04 01:19:34;;;;;;;5.28;3.17;;;;;;;4.68;72.42;99959.03;7344491;19;20014;-67
2023/05/04 01:22:01;;;;;;;8.63;3.58;;;;;;;4.69;72.53;99967.81;7341972;19;20067;-67
2023/05/04 01:24:27;;;;;;;4.70;3.78;;;;;;;4.67;72.86;99965.25;7341567;19;20002;-66
2023/05/04 01:26:59;;;;;;;5.75;3.53;;;;;;;4.68;72.82;99969.59;7342236;19;20010;-67
2023/05/04 01:29:30;;;;;;;5.30;3.40;;;;;;;4.69;72.71;99968.69;7343098;19;20022;-69
2023/05/04 01:31:55;;;;;;;10.90;4.00;;;;;;;4.64;72.61;99975.06;7346116;19;20014;-68
2023/05/04 01:34:21;;;;;;;6.13;3.65;;;;;;;4.62;72.46;99980.44;7345905;19;20010;-69
2023/05/04 01:36:46;;;;;;;7.93;4.25;;;;;;;4.60;72.13;99977.00;7343610;19;20019;-69
2023/05/04 01:39:11;;;;;;;7.10;4.60;;;;;;;4.57;72.34;99973.63;7345838;19;20083;-70
2023/05/04 01:41:36;;;;;;;13.05;4.35;;;;;;;4.56;72.51;99972.75;7347611;19;20022;-70
2023/05/04 01:44:01;;;;;;;7.65;3.67;;;;;;;4.55;72.58;99978.09;7341451;19;20078;-68
2023/05/04 01:46:26;;;;;;;5.30;3.42;;;;;;;4.54;72.78;99987.78;7344165;19;20397;-69
2023/05/04 01:48:51;;;;;;;6.45;3.85;;;;;;;4.52;72.78;99976.44;7343611;19;20397;-70
2023/05/04 01:51:15;;;;;;;5.32;3.33;;;;;;;4.52;72.58;99973.78;7343284;19;20018;-70
2023/05/04 01:53:40;;;;;;;8.05;3.70;;;;;;;4.50;72.55;99978.31;7343754;19;20394;-67
2023/05/04 01:56:06;;;;;;;5.40;3.25;;;;;;;4.53;72.61;99991.34;7342628;19;20339;-68
2023/05/04 01:58:31;;;;;;;6.80;3.47;;;;;;;4.55;72.92;100010.63;7343203;19;20022;-76
2023/05/04 02:00:58;;;;;;;9.50;5.57;;;;;;;4.55;72.75;99992.16;7341303;19;20014;-69
2023/05/04 02:03:22;;;;;;;6.72;3.28;;;;;;;4.61;72.63;99991.06;7341068;19;20046;-72
2023/05/04 02:05:47;;;;;;;7.80;4.30;;;;;;;4.60;72.55;99989.34;7344417;19;20010;-71
2023/05/04 02:08:14;;;;;;;5.45;3.88;;;;;;;4.64;72.32;99994.41;7342573;19;20026;-71
2023/05/04 02:10:38;;;;;;;7.38;3.88;;;;;;;4.67;72.37;99990.78;7340476;19;20099;-74
2023/05/04 02:13:03;;;;;;;7.18;2.97;;;;;;;4.73;72.31;99987.91;7343834;19;20018;-68
2023/05/04 02:15:28;;;;;;;7.55;3.35;;;;;;;4.79;71.96;99992.06;7341834;19;20494;-68
2023/05/04 02:17:53;;;;;;;6.78;3.80;;;;;;;4.84;72.09;99998.03;7342265;19;20010;-68
2023/05/04 02:20:17;;;;;;;9.30;3.63;;;;;;;4.90;71.72;99995.09;7342993;19;20023;-70
2023/05/04 02:22:44;;;;;;;7.05;3.20;;;;;;;4.96;71.42;99995.72;7340045;19;20039;-68
2023/05/04 02:25:08;;;;;;;6.38;3.35;;;;;;;5.05;71.27;100000.59;7341592;19;20019;-68
2023/05/04 02:27:34;;;;;;;6.68;3.90;;;;;;;5.14;71.13;99996.69;7341921;19;20398;-68
2023/05/04 02:29:59;;;;;;;5.35;3.53;;;;;;;5.19;70.95;99997.38;7341661;19;20331;-68
2023/05/04 02:32:25;;;;;;;6.25;3.08;;;;;;;5.29;70.77;100005.75;7343268;19;20082;-71
2023/05/04 02:34:49;;;;;;;4.45;3.15;;;;;;;5.38;70.73;100000.03;7341191;19;20030;-69
2023/05/04 02:37:15;;;;;;;7.50;3.22;;;;;;;5.46;70.66;100001.41;7340289;19;20018;-67
2023/05/04 02:39:41;;;;;;;7.35;3.55;;;;;;;5.58;70.03;100007.06;7339102;19;20043;-70
2023/05/04 02:42:06;;;;;;;7.72;3.38;;;;;;;5.67;69.41;100006.66;7339775;19;20011;-69
2023/05/04 02:44:30;;;;;;;5.43;4.03;;;;;;;5.79;69.43;100003.44;7339423;19;20014;-70
2023/05/04 02:46:55;;;;;;;5.40;3.70;;;;;;;5.90;69.14;100001.19;7342387;19;20053;-71
2023/05/04 02:49:20;;;;;;;11.48;3.83;;;;;;;6.01;68.60;100005.97;7342989;19;20018;-69
2023/05/04 02:51:46;;;;;;;7.53;3.47;;;;;;;6.11;68.41;100010.75;7339847;19;20037;-69
2023/05/04 02:54:10;;;;;;;5.68;3.55;;;;;;;6.23;68.02;100009.31;7343864;19;20022;-68
2023/05/04 02:56:35;;;;;;;3.92;2.83;;;;;;;6.36;66.58;100017.53;7339069;19;20017;-71
2023/05/04 02:59:00;;;;;;;4.53;2.92;;;;;;;6.47;65.53;100015.22;7344140;19;20347;-68
2023/05/04 03:01:24;;;;;;;4.38;3.10;;;;;;;6.59;64.49;100019.91;7340797;19;20465;-67
2023/05/04 03:03:49;;;;;;;5.30;3.22;;;;;;;6.74;63.10;100020.97;7344089;19;20026;-66
2023/05/04 03:06:14;;;;;;;5.78;3.25;;;;;;;6.83;62.50;100010.75;7343266;19;20394;-65
2023/05/04 03:08:38;;;;;;;6.88;3.65;;;;;;;7.00;61.93;100017.00;7344185;19;20026;-71
2023/05/04 03:11:03;;;;;;;8.00;3.67;;;;;;;7.11;61.75;100007.53;7342710;19;20026;-70
2023/05/04 03:13:28;;;;;;;6.88;3.42;;;;;;;7.25;60.97;100015.66;7342129;19;20022;-70
2023/05/04 03:15:53;;;;;;;8.65;3.92;;;;;;;7.38;60.33;100021.19;7340854;19;20027;-68
2023/05/04 03:18:17;;;;;;;3.92;3.28;;;;;;;7.54;59.73;100022.09;7341423;19;20014;-71
2023/05/04 03:20:42;;;;;;;5.35;3.13;;;;;;;7.67;59.38;100024.97;7342777;19;20059;-71
2023/05/04 03:23:15;;;;;;;6.28;3.15;;;;;;;7.81;58.38;100021.53;7343073;19;20026;-72
2023/05/04 03:25:41;;;;;;;4.65;3.50;;;;;;;7.89;57.90;100022.00;7342027;19;20018;-71
2023/05/04 03:28:06;;;;;;;8.13;3.60;;;;;;;7.99;56.94;100020.56;7341223;19;20052;-70
2023/05/04 03:30:30;;;;;;;6.13;3.80;;;;;;;8.12;56.67;100024.25;7340394;19;20046;-71
2023/05/04 03:32:59;;;;;;;5.43;2.92;;;;;;;8.26;56.65;100026.97;7338362;19;20028;-68
2023/05/04 03:35:23;;;;;;;5.20;3.40;;;;;;;8.42;56.42;100028.81;7338672;19;20078;-67
2023/05/04 03:37:48;;;;;;;7.35;4.30;;;;;;;8.55;55.50;100029.84;7341139;19;20003;-68
2023/05/04 03:40:13;;;;;;;9.13;3.00;;;;;;;8.65;55.11;100031.03;7339928;19;20519;-69
2023/05/04 03:42:38;;;;;;;7.90;4.13;;;;;;;8.78;54.44;100033.84;7339544;19;20018;-68
2023/05/04 03:45:05;;;;;;;5.47;3.80;;;;;;;8.92;55.11;100032.06;7337703;19;20423;-68
2023/05/04 03:47:30;;;;;;;4.97;3.35;;;;;;;9.01;53.07;100028.91;7338241;19;20026;-69
2023/05/04 03:49:56;;;;;;;4.70;3.03;;;;;;;9.15;53.84;100030.72;7336847;19;20025;-69
2023/05/04 03:52:21;;;;;;;8.05;3.67;;;;;;;9.29;53.81;100024.56;7343657;19;20026;-69
2023/05/04 03:54:46;;;;;;;6.72;3.95;;;;;;;9.41;53.60;100032.69;7345805;19;20437;-69
2023/05/04 03:57:15;;;;;;;10.02;3.90;;;;;;;9.58;52.16;100036.13;7346994;19;20477;-69
2023/05/04 03:59:40;;;;;;;11.65;4.40;;;;;;;9.53;52.93;100030.22;7348837;19;20342;-69
2023/05/04 04:02:05;;;;;;;10.77;4.35;;;;;;;9.60;52.07;100039.53;7343063;19;20432;-69
2023/05/04 04:04:30;;;;;;;8.70;4.30;;;;;;;9.72;51.26;100042.31;7344921;19;20407;-69
2023/05/04 04:06:55;;;;;;;5.68;2.90;;;;;;;9.94;51.46;100040.97;7345276;19;20409;-69
2023/05/04 04:09:24;;;;;;;10.02;3.88;;;;;;;10.20;51.90;100042.88;7343996;19;20362;-72
2023/05/04 04:11:49;;;;;;;8.75;4.07;;;;;;;10.41;50.08;100046.00;7344768;19;20356;-72
2023/05/04 04:14:14;;;;;;;8.25;4.00;;;;;;;10.55;49.42;100044.16;7344827;19;20104;-72
2023/05/04 04:16:39;;;;;;;6.03;3.80;;;;;;;10.80;49.66;100055.88;7345089;19;20031;-73
2023/05/04 04:19:05;;;;;;;8.68;4.63;;;;;;;11.10;48.86;100056.50;7344724;19;20225;-73
2023/05/04 04:21:30;;;;;;;10.75;3.90;;;;;;;11.45;48.00;100055.94;7348369;19;20018;-69
2023/05/04 04:23:55;;;;;;;9.23;4.40;;;;;;;11.76;47.08;100049.34;7343867;19;20015;-69
2023/05/04 04:26:20;;;;;;;13.18;3.88;;;;;;;12.08;46.48;100053.28;7344121;19;20391;-70
2023/05/04 04:28:49;;;;;;;8.20;3.88;;;;;;;12.39;45.80;100049.28;7344533;19;20825;-70
2023/05/04 04:31:14;;;;;;;9.98;4.03;;;;;;;12.73;45.19;100051.19;7344276;19;20022;-71
2023/05/04 04:33:38;;;;;;;9.95;4.30;;;;;;;13.10;44.08;100059.13;7345410;19;20017;-71
2023/05/04 04:36:03;;;;;;;15.13;4.30;;;;;;;13.42;42.46;100056.75;7346060;19;20010;-71
2023/05/04 04:38:28;;;;;;;11.43;4.07;;;;;;;13.73;42.37;100049.88;7345742;19;20015;-71
2023/05/04 04:40:52;;;;;;;8.52;4.28;;;;;;;14.08;42.06;100050.63;7343882;19;20014;-71
2023/05/04 04:43:17;;;;;;;11.73;4.28;;;;;;;14.45;41.53;100045.84;7345228;19;20086;-71
2023/05/04 04:45:43;;;;;;;10.43;4.53;;;;;;;14.71;40.41;100054.47;7345425;19;20030;-71
2023/05/04 04:48:10;;;;;;;9.13;4.93;;;;;;;15.03;40.29;100053.63;7343593;19;20017;-70
2023/05/04 04:50:38;;;;;;;9.30;4.70;;;;;;;15.34;39.46;100052.78;7342015;19;20592;-71
2023/05/04 04:53:03;;;;;;;13.85;4.82;;;;;;;15.46;38.73;100049.03;7344921;19;20049;-71
2023/05/04 04:55:27;;;;;;;13.43;4.68;;;;;;;15.64;39.19;100059.22;7343394;19;20198;-71
2023/05/04 04:57:53;;;;;;;8.48;5.57;;;;;;;15.84;38.71;100055.66;7343352;19;20473;-70
2023/05/04 05:00:18;;;;;;;6.88;4.63;;;;;;;16.06;37.97;100050.13;7344750;19;20018;-70
2023/05/04 05:02:43;;;;;;;15.77;4.72;;;;;;;16.29;38.35;100050.78;7342014;19;20027;-68
2023/05/04 05:05:07;;;;;;;7.50;4.03;;;;;;;16.54;37.99;100050.31;7344588;19;20010;-69
2023/05/04 05:07:32;;;;;;;12.05;3.80;;;;;;;16.81;38.14;100057.78;7345305;19;20020;-70
2023/05/04 05:09:57;;;;;;;10.60;3.78;;;;;;;17.11;37.55;100053.25;7348152;19;20015;-69
2023/05/04 05:12:22;;;;;;;5.05;3.17;;;;;;;17.33;36.24;100059.22;7344000;19;20018;-69
2023/05/04 05:14:46;;;;;;;5.07;2.63;;;;;;;17.49;35.60;100055.97;7345175;19;20085;-70
2023/05/04 05:17:11;;;;;;;10.23;4.18;;;;;;;17.68;36.71;100042.47;7347723;19;20045;-69
2023/05/04 05:19:37;;;;;;;15.90;5.35;;;;;;;18.00;35.49;100057.44;7346134;19;20358;-73
2023/05/04 05:22:03;;;;;;;5.47;3.90;;;;;;;18.37;34.75;100046.63;7348306;19;20037;-69
2023/05/04 05:24:27;;;;;;;10.00;4.00;;;;;;;18.71;33.83;100053.16;7347137;19;20022;-68
2023/05/04 05:26:52;;;;;;;8.93;3.70;;;;;;;19.01;33.41;100054.66;7343959;19;20078;-70
2023/05/04 05:29:17;;;;;;;9.20;3.10;;;;;;;19.37;32.96;100054.66;7346473;19;20026;-69
2023/05/04 05:31:41;;;;;;;5.80;3.15;;;;;;;19.79;32.42;100054.84;7346010;19;20014;-69
2023/05/04 05:34:06;;;;;;;4.15;3.10;;;;;;;20.18;32.50;100063.38;7344741;19;20457;-68
2023/05/04 05:36:31;;;;;;;6.38;3.67;;;;;;;20.60;31.49;100061.56;7342144;19;20035;-68
2023/05/04 05:38:56;;;;;;;8.20;3.33;;;;;;;20.98;30.36;100059.31;7343397;19;20010;-71
2023/05/04 05:41:21;;;;;;;6.65;3.80;;;;;;;21.43;29.14;100050.78;7345501;19;20370;-70
2023/05/04 05:43:46;;;;;;;3.58;2.65;;;;;;;21.86;28.28;100054.97;7348610;19;20018;-71
2023/05/04 05:49:31;;;;;;;8.93;3.33;;;;;;;22.95;27.12;100051.56;7343804;19;20025;-70
2023/05/04 05:51:57;;;;;;;8.27;2.80;;;;;;;23.35;26.34;100056.75;7346455;19;20018;-71
2023/05/04 05:54:22;;;;;;;4.25;3.33;;;;;;;23.91;25.33;100048.28;7343471;19;20103;-70
2023/05/04 05:56:47;;;;;;;3.50;2.55;;;;;;;24.39;25.13;100052.34;7343281;19;20031;-70
2023/05/04 05:59:13;;;;;;;6.25;2.60;;;;;;;24.73;23.97;100059.94;7341522;19;20027;-71
2023/05/04 06:01:38;;;;;;;7.65;1.88;;;;;;;24.98;22.76;100052.31;7342064;19;20010;-71
2023/05/04 06:04:03;;;;;;;3.38;2.28;;;;;;;25.33;22.22;100062.34;7343130;19;20421;-70
2023/05/04 06:06:27;;;;;;;1.75;1.65;;;;;;;25.61;21.77;100049.63;7342633;19;20026;-70
2023/05/04 06:08:52;;;;;;;4.20;2.45;;;;;;;25.87;21.72;100049.00;7342295;19;20015;-70
2023/05/04 06:11:17;;;;;;;2.60;2.40;;;;;;;26.14;21.31;100041.84;7343697;19;20014;-69
2023/05/04 06:13:41;;;;;;;4.55;2.30;;;;;;;26.47;21.01;100046.66;7343379;19;20010;-70
2023/05/04 06:16:06;;;;;;;6.53;2.83;;;;;;;26.96;21.35;100050.06;7343692;19;20027;-70
2023/05/04 06:18:31;;;;;;;2.10;1.92;;;;;;;27.40;19.92;100040.47;7343318;19;20026;-71
2023/05/04 06:20:58;;;;;;;4.28;2.20;;;;;;;28.00;19.71;100044.06;7342426;19;20053;-70
2023/05/04 06:23:24;;;;;;;1.77;1.60;;;;;;;28.58;19.83;100034.06;7343405;19;20521;-69
2023/05/04 06:25:49;;;;;;;2.20;2.05;;;;;;;29.37;18.64;100036.44;7343827;19;20374;-70
2023/05/04 06:28:15;;;;;;;2.40;1.83;;;;;;;30.04;17.88;100026.59;7342748;19;20078;-70
2023/05/04 06:30:40;;;;;;;2.00;1.90;;;;;;;30.39;16.65;100032.34;7338256;19;20466;-70
2023/05/04 06:33:05;;;;;;;2.38;2.15;;;;;;;30.86;16.61;100029.91;7339455;19;20572;-68
2023/05/04 06:35:30;;;;;;;4.78;2.70;;;;;;;31.35;16.46;100037.06;7344604;19;20022;-69
2023/05/04 06:37:55;;;;;;;2.20;2.00;;;;;;;31.67;16.43;100041.25;7342831;19;20021;-68
2023/05/04 06:40:20;;;;;;;4.35;2.67;;;;;;;31.75;15.92;100034.53;7342692;19;20446;-69
2023/05/04 06:42:44;;;;;;;2.67;2.47;;;;;;;32.29;15.86;100038.88;7342651;19;20510;-70
2023/05/04 06:45:09;;;;;;;3.33;2.58;;;;;;;32.73;16.30;100029.09;7341461;19;20017;-70
2023/05/04 06:47:36;;;;;;;2.40;2.22;;;;;;;33.05;16.09;100036.94;7339881;19;20014;-70
2023/05/04 06:50:01;;;;;;;5.25;2.83;;;;;;;33.24;15.24;100038.44;7338928;19;20057;-72
2023/05/04 06:52:28;;;;;;;3.78;2.97;;;;;;;33.02;14.96;100024.44;7339269;19;20075;-71
2023/05/04 06:54:53;;;;;;;4.68;2.40;;;;;;;33.27;14.89;100028.81;7341006;19;20014;-70
2023/05/04 06:57:17;;;;;;;4.30;3.13;;;;;;;33.56;14.65;100033.19;7342821;19;20018;-71
2023/05/04 06:59:42;;;;;;;3.17;2.88;;;;;;;33.59;14.81;100029.94;7339159;19;20018;-68
2023/05/04 07:02:06;;;;;;;2.50;2.30;;;;;;;33.75;14.70;100025.53;7340270;19;20385;-68
2023/05/04 07:04:31;;;;;;;3.47;2.67;;;;;;;34.01;14.36;100024.81;7341843;19;20032;-69
2023/05/04 07:06:56;;;;;;;2.60;2.40;;;;;;;34.51;14.39;100019.22;7341034;19;20025;-69
2023/05/04 07:09:21;;;;;;;3.13;2.92;;;;;;;34.79;15.08;100026.50;7341012;19;20037;-69
2023/05/04 07:11:47;;;;;;;2.88;2.55;;;;;;;34.85;14.76;100019.94;7340330;19;20014;-67
2023/05/04 07:14:12;;;;;;;3.00;2.80;;;;;;;35.24;13.83;100017.84;7340871;19;20358;-68
2023/05/04 07:16:36;;;;;;;2.75;2.55;;;;;;;35.72;14.23;100020.81;7340943;19;20342;-71
2023/05/04 07:19:03;;;;;;;5.50;3.40;;;;;;;36.11;13.63;100013.06;7342286;19;20019;-70
2023/05/04 07:21:27;;;;;;;3.20;3.00;;;;;;;36.59;13.22;100004.44;7340451;19;20090;-71
2023/05/04 07:23:52;;;;;;;3.35;3.15;;;;;;;37.29;12.87;100013.31;7344284;19;20019;-70
2023/05/04 07:26:17;;;;;;;5.00;3.30;;;;;;;37.85;12.30;100016.97;7343730;19;20014;-68
2023/05/04 07:28:42;;;;;;;4.25;3.70;;;;;;;38.04;12.52;100012.47;7341620;19;20031;-68
2023/05/04 07:31:07;;;;;;;5.70;4.40;;;;;;;38.10;12.30;100003.06;7342979;19;20019;-70
2023/05/04 07:33:31;;;;;;;4.25;3.55;;;;;;;37.54;11.91;100006.94;7340568;19;20019;-71
2023/05/04 07:35:57;;;;;;;3.78;3.55;;;;;;;37.15;12.25;100003.81;7340125;19;20018;-70
2023/05/04 07:38:24;;;;;;;4.85;3.90;;;;;;;37.34;12.53;100007.78;7341009;19;20035;-70
2023/05/04 07:40:49;;;;;;;3.75;3.45;;;;;;;37.72;11.97;99986.94;7339935;19;20032;-70
2023/05/04 07:43:14;;;;;;;3.55;3.33;;;;;;;38.26;11.93;100000.25;7340132;19;20010;-70
2023/05/04 07:45:40;;;;;;;4.80;4.43;;;;;;;38.79;11.95;99981.91;7339459;19;20070;-71
2023/05/04 07:48:04;;;;;;;4.03;3.80;;;;;;;39.15;11.46;99991.78;7338457;19;20025;-70
2023/05/04 07:50:29;;;;;;;4.28;3.90;;;;;;;39.20;11.41;99979.72;7339992;19;20018;-73
2023/05/04 07:52:54;;;;;;;7.10;4.78;;;;;;;39.64;11.16;99978.84;7344328;19;20014;-71
2023/05/04 07:55:18;;;;;;;7.13;4.38;;;;;;;39.94;11.37;99984.19;7352427;19;20022;-71
2023/05/04 07:57:44;;;;;;;4.82;3.90;;;;;;;40.16;11.40;99978.06;7339661;19;20035;-73
2023/05/04 08:00:09;;;;;;;4.45;4.15;;;;;;;40.14;11.17;99978.38;7339298;19;20018;-69
2023/05/04 08:02:40;;;;;;;4.00;3.80;;;;;;;40.26;11.29;99977.94;7337304;19;20018;-70
2023/05/04 08:05:05;;;;;;;4.60;4.30;;;;;;;40.66;11.20;99986.97;7338440;19;20015;-71
2023/05/04 08:07:30;;;;;;;4.75;4.45;;;;;;;41.33;10.88;99983.78;7341233;19;20468;-70
2023/05/04 08:09:55;;;;;;;5.97;5.43;;;;;;;41.62;10.55;99985.59;7336504;19;20019;-70
2023/05/04 08:12:20;;;;;;;5.22;4.82;;;;;;;41.90;10.04;99970.50;7339058;19;20018;-70
2023/05/04 08:14:46;;;;;;;5.28;4.88;;;;;;;42.23;9.99;99978.84;7338869;19;20010;-73
2023/05/04 08:17:11;;;;;;;6.93;5.15;;;;;;;42.53;10.21;99964.25;7338219;19;20098;-71
2023/05/04 08:19:35;;;;;;;5.65;5.00;;;;;;;42.59;9.69;99962.97;7337208;19;20035;-71
2023/05/04 08:22:00;;;;;;;5.38;4.97;;;;;;;42.49;10.02;99960.41;7338492;19;20035;-71
2023/05/04 08:24:25;;;;;;;5.40;5.05;;;;;;;42.41;10.07;99963.94;7338577;19;20018;-70
2023/05/04 08:26:50;;;;;;;5.68;5.28;;;;;;;41.91;9.52;99960.94;7342932;19;20011;-71
2023/05/04 08:29:15;;;;;;;6.03;5.63;;;;;;;40.67;10.27;99946.69;7336378;19;20025;-72
2023/05/04 08:31:40;;;;;;;5.45;5.07;;;;;;;40.61;10.27;99944.00;7338409;19;20022;-71
2023/05/04 08:34:06;;;;;;;5.55;5.25;;;;;;;41.12;10.49;99950.81;7338605;19;20018;-71
2023/05/04 08:36:31;;;;;;;6.13;5.45;;;;;;;41.48;10.09;99942.69;7336576;19;20022;-70
2023/05/04 08:38:55;;;;;;;6.50;5.90;;;;;;;41.46;9.88;99944.97;7340459;19;20054;-71
2023/05/04 08:41:22;;;;;;;6.20;5.70;;;;;;;41.29;10.33;99937.97;7345349;19;20014;-70
2023/05/04 08:43:48;;;;;;;7.05;6.40;;;;;;;41.56;10.38;99940.03;7345068;19;20018;-71
2023/05/04 08:46:13;;;;;;;5.78;5.38;;;;;;;41.68;10.52;99937.56;7346733;19;20015;-71
2023/05/04 08:48:38;;;;;;;5.38;4.97;;;;;;;42.19;9.37;99933.00;7343479;19;20397;-71
2023/05/04 08:51:05;;;;;;;6.35;5.75;;;;;;;42.79;9.60;99941.25;7341285;19;20396;-70
2023/05/04 08:53:31;;;;;;;6.68;6.07;;;;;;;43.22;9.90;100049.16;7344758;19;20504;-71
2023/05/04 08:56:02;;;;;;;6.40;5.88;;;;;;;42.76;9.62;100043.66;7343583;19;20350;-71
2023/05/04 08:58:27;;;;;;;6.43;6.03;;;;;;;43.14;9.85;100035.81;7345096;19;20019;-71
2023/05/04 09:00:52;;;;;;;6.65;6.15;;;;;;;43.74;9.75;100029.94;7344854;19;20066;-70
2023/05/04 09:03:17;;;;;;;7.72;7.22;;;;;;;44.07;9.80;99989.16;7345427;19;20022;-70
2023/05/04 09:05:45;;;;;;;8.25;7.45;;;;;;;43.99;9.66;100020.88;7347175;19;20018;-70
2023/05/04 09:08:10;;;;;;;7.97;7.38;;;;;;;43.71;9.29;100030.56;7343933;19;20740;-70
2023/05/04 09:10:35;;;;;;;7.55;7.00;;;;;;;44.05;9.42;100018.72;7343395;19;20354;-70
2023/05/04 09:13:00;;;;;;;8.80;8.20;;;;;;;44.53;9.21;100001.09;7345381;19;20023;-70
2023/05/04 09:15:25;;;;;;;8.88;8.27;;;;;;;44.50;9.38;99986.53;7345198;19;20042;-72
2023/05/04 09:18:01;;;;;;;9.60;8.95;;;;;;;44.77;9.05;100019.22;7344626;19;20098;-71
2023/05/04 09:20:26;;;;;;;8.20;7.70;;;;;;;44.35;9.20;100011.44;7343543;19;20019;-69
2023/05/04 09:23:06;;;;;;;9.75;8.85;;;;;;;44.86;8.85;100017.25;7344382;19;20111;-70
2023/05/04 09:25:33;;;;;;;7.10;6.63;;;;;;;40.78;10.09;100009.75;7343341;19;20019;-71
2023/05/04 09:27:57;;;;;;;7.93;5.85;;;;;;;37.41;11.34;99902.63;7345495;19;20011;-71
2023/05/04 09:30:22;;;;;;;5.30;4.88;;;;;;;35.71;12.42;99894.28;7342314;19;20014;-71
2023/05/04 09:32:48;;;;;;;4.90;4.43;;;;;;;36.57;12.08;99891.97;7343246;19;20026;-71
2023/05/04 09:35:13;;;;;;;5.00;4.60;;;;;;;37.93;11.59;99899.47;7344115;19;20465;-71
2023/05/04 09:37:45;;;;;;;9.50;4.72;;;;;;;39.91;10.66;99898.19;7342431;19;20019;-71
2023/05/04 09:40:12;;;;;;;4.93;4.63;;;;;;;41.00;10.71;99906.53;7343653;19;20010;-70
2023/05/04 09:42:36;;;;;;;5.38;5.00;;;;;;;41.30;9.54;99994.78;7343378;19;20010;-71
2023/05/04 09:45:06;;;;;;;6.57;5.97;;;;;;;42.57;9.82;99956.03;7343578;19;20015;-71
2023/05/04 09:47:37;;;;;;;7.10;5.88;;;;;;;43.20;9.28;99888.66;7343455;19;20018;-69
2023/05/04 09:50:25;;;;;;;6.63;6.13;;;;;;;45.12;9.34;99896.28;7341322;19;20802;-72
2023/05/04 09:52:50;;;;;;;7.25;6.75;;;;;;;44.15;8.86;99878.75;7342957;19;20086;-70
2023/05/04 09:55:17;;;;;;;7.18;6.28;;;;;;;43.96;8.00;99877.34;7342895;19;20047;-71
2023/05/04 09:57:44;;;;;;;7.32;6.82;;;;;;;43.17;8.40;99868.78;7342844;19;20376;-72
2023/05/04 10:00:11;;;;;;;8.20;7.60;;;;;;;42.31;8.84;99866.03;7342896;19;20484;-71
2023/05/04 10:02:36;;;;;;;8.05;7.05;;;;;;;42.01;8.66;99871.16;7341285;19;20028;-71
2023/05/04 10:05:02;;;;;;;6.70;6.20;;;;;;;41.64;9.34;99865.72;7343304;19;20026;-70
2023/05/04 10:07:32;;;;;;;6.55;5.95;;;;;;;41.19;9.34;99867.38;7345848;19;20011;-72
2023/05/04 10:09:58;;;;;;;5.93;5.53;;;;;;;41.32;8.98;99864.59;7341999;19;20122;-70
2023/05/04 10:12:23;;;;;;;9.23;5.97;;;;;;;41.60;9.10;99859.91;7342772;19;20014;-70
2023/05/04 10:14:48;;;;;;;5.68;5.28;;;;;;;41.32;9.40;99859.00;7342290;19;20134;-72
2023/05/04 10:17:44;;;;;;;6.03;5.55;;;;;;;41.91;8.96;99860.13;7342103;19;20114;-72
2023/05/04 10:20:50;;;;;;;7.13;6.47;;;;;;;40.31;10.00;99860.56;7341741;19;20702;-71
2023/05/04 10:23:32;;;;;;;5.55;5.13;;;;;;;36.82;10.66;99855.91;7338051;19;20014;-72
2023/05/04 10:26:15;;;;;;;7.65;4.30;;;;;;;34.01;12.08;99850.50;7338568;19;20021;-72
2023/05/04 10:28:58;;;;;;;;;;;;;;;33.04;12.52;99851.00;7343836;19;20492;-70
2023/05/04 10:31:24;;;;;;;6.70;3.55;;;;;;;28.97;15.12;99846.41;7339790;19;20371;-71
2023/05/04 10:33:49;;;;;;;5.00;3.35;;;;;;;26.86;16.12;99841.66;7341517;19;20336;-71
2023/05/04 10:36:14;;;;;;;3.08;2.42;;;;;;;25.17;17.48;99847.06;7338245;19;20383;-71
2023/05/04 10:38:39;;;;;;;2.95;2.67;;;;;;;24.11;18.53;99854.13;7338338;19;20011;-71
2023/05/04 10:41:17;;;;;;;3.63;2.85;;;;;;;23.90;17.89;99848.66;7337497;19;20031;-72
2023/05/04 10:43:47;;;;;;;5.78;2.90;;;;;;;22.60;19.18;99857.25;7341327;19;20392;-71
2023/05/04 10:46:22;;;;;;;2.50;2.30;;;;;;;22.31;19.72;99847.09;7342200;19;20090;-71
2023/05/04 10:48:48;;;;;;;3.00;2.47;;;;;;;21.57;20.84;99845.72;7337872;19;20064;-73
2023/05/04 10:51:21;;;;;;;6.85;2.97;;;;;;;21.42;20.69;99844.78;7339811;19;20018;-72
2023/05/04 10:53:46;;;;;;;2.97;2.53;;;;;;;20.90;22.26;99839.75;7346649;19;20023;-72
2023/05/04 10:56:26;;;;;;;2.33;2.15;;;;;;;20.98;21.91;99837.06;7340974;19;20055;-71
2023/05/04 10:58:52;;;;;;;4.57;2.40;;;;;;;20.51;22.05;99848.59;7338885;19;20016;-71
2023/05/04 11:01:17;;;;;;;4.70;2.53;;;;;;;20.23;22.47;99839.03;7340126;19;20018;-71
2023/05/04 11:03:43;;;;;;;3.33;2.53;;;;;;;19.76;22.51;99844.97;7346669;19;20011;-72
2023/05/04 11:06:19;;;;;;;2.58;2.20;;;;;;;19.55;23.31;99842.69;7347558;19;20023;-75
2023/05/04 11:08:57;;;;;;;5.32;2.67;;;;;;;19.15;23.25;99839.75;7343845;19;20018;-72
2023/05/04 11:11:23;;;;;;;4.97;3.30;;;;;;;18.75;23.24;99837.59;7346297;19;20015;-71
2023/05/04 11:13:48;;;;;;;5.30;3.05;;;;;;;18.57;23.34;99839.47;7347899;19;20019;-72
2023/05/04 11:16:21;;;;;;;5.70;2.88;;;;;;;18.64;24.09;99838.69;7347039;19;20810;-73
2023/05/04 11:18:45;;;;;;;2.95;2.47;;;;;;;18.65;24.10;99835.00;7343046;19;20018;-72
2023/05/04 11:21:11;;;;;;;2.97;2.65;;;;;;;18.44;23.27;99832.59;7344214;19;20021;-71
2023/05/04 11:23:37;;;;;;;3.75;2.47;;;;;;;18.16;23.95;99835.53;7342688;19;20031;-72
2023/05/04 11:26:07;;;;;;;6.07;2.80;;;;;;;18.20;24.50;99832.38;7339991;19;20037;-70
2023/05/04 11:28:33;;;;;;;4.82;2.33;;;;;;;17.99;24.01;99818.31;7339932;19;20052;-69
2023/05/04 11:30:58;;;;;;;3.92;2.47;;;;;;;17.72;24.62;99817.34;7336590;19;20473;-69